Northern Expedition — CFN5364 — position and weather

sailwx.info

Track history (hours):
 
Tides and Currents Weather Stations Pressure Air Temp Water Temp Dewpoint Dewpoint Depression Visibility Wind Speed Wind Dir Waves Ship Positions

Northern Expedition

Last reported at 2016-Jul-31 05:33 UTC. Time now 2016-Jul-31 07:23 UTC.
Position N 50°50' W 127°29'.

Length 151 m; draft 5 m.

Type: Passenger vessel. MMSI: 316014054.

Date/timePositionNaut miles runAvg speedWind from/ knotsBaromVisibWave heightAir tempDewpointWater temp
2016-Jul-31 05:33N 50°50' W 127°29'1919.4
2016-Jul-31 04:33N 51°05' W 127°49'26 0.7
2016-Jul-29 17:31N 51°32' W 127°52'1918.8
2016-Jul-29 16:29N 51°12' W 127°51'1718.6
2016-Jul-29 15:33N 50°56' W 127°41'1515.3
2016-Jul-29 14:34N 50°44' W 127°27'0 0.0
2016-Jul-29 13:28N 50°44' W 127°27'0 0.0
2016-Jul-29 07:13N 50°44' W 127°27'1 0.6
2016-Jul-29 05:33N 50°45' W 127°28'1818.4
2016-Jul-29 04:33N 50°59' W 127°46'2020.3
2016-Jul-29 03:33N 51°19' W 127°52'13 0.4
2016-Jul-27 17:28N 51°32' W 127°51'1919.2
2016-Jul-27 16:30N 51°13' W 127°53'1718.4
2016-Jul-27 15:33N 50°57' W 127°43'1716.1
2016-Jul-27 14:32N 50°44' W 127°28'0 0.0
2016-Jul-27 09:17N 50°44' W 127°27'5 1.4
2016-Jul-27 05:33N 50°49' W 127°27'1919.1
2016-Jul-27 04:33N 51°03' W 127°47'2520.6
2016-Jul-27 03:21N 51°27' W 127°51'2 0.1
2016-Jul-25 17:33N 51°30' W 127°51'1919.0
2016-Jul-25 16:33N 51°10' W 127°51'1919.5
2016-Jul-25 15:33N 50°57' W 127°29'14 2.0
2016-Jul-25 08:32N 50°44' W 127°27'0 0.0
2016-Jul-25 07:32N 50°44' W 127°27'0 0.0
2016-Jul-25 06:32N 50°44' W 127°27'7 6.8
2016-Jul-25 05:33N 50°50' W 127°29'1818.4
2016-Jul-25 04:33N 51°04' W 127°48'2019.7
2016-Jul-25 03:31N 51°24' W 127°51'8 0.2
2016-Jul-23 17:28N 51°32' W 127°51'1920.2
2016-Jul-23 16:32N 51°13' W 127°52'2020.5
2016-Jul-23 15:34N 50°55' W 127°39'10 0.9
2016-Jul-23 04:33N 51°04' W 127°48'2619.6
2016-Jul-23 03:15N 51°29' W 127°51'3 0.1
2016-Jul-21 17:18N 51°32' W 127°52'1619.8
2016-Jul-21 16:29N 51°15' W 127°53'1819.9
2016-Jul-21 15:33N 50°58' W 127°45'1816.5
2016-Jul-21 14:27N 50°44' W 127°27'  
Track history (hours):
 
Tides and Currents Weather Stations Pressure Air Temp Water Temp Dewpoint Dewpoint Depression Visibility Wind Speed Wind Dir Waves Ship Positions

Northern Expedition

Last reported at 2016-Jul-31 05:33 UTC. Time now 2016-Jul-31 07:23 UTC.
Position N 50°50' W 127°29'.

Length 151 m; draft 5 m.

Type: Passenger vessel. MMSI: 316014054.

Date/timePositionNaut miles runAvg speedWind from/ knotsBaromVisibWave heightAir tempDewpointWater temp
2016-Jul-31 05:33N 50°50' W 127°29'1919.4
2016-Jul-31 04:33N 51°05' W 127°49'26 0.7
2016-Jul-29 17:31N 51°32' W 127°52'1918.8
2016-Jul-29 16:29N 51°12' W 127°51'1718.6
2016-Jul-29 15:33N 50°56' W 127°41'1515.3
2016-Jul-29 14:34N 50°44' W 127°27'0 0.0
2016-Jul-29 13:28N 50°44' W 127°27'0 0.0
2016-Jul-29 07:13N 50°44' W 127°27'1 0.6
2016-Jul-29 05:33N 50°45' W 127°28'1818.4
2016-Jul-29 04:33N 50°59' W 127°46'2020.3
2016-Jul-29 03:33N 51°19' W 127°52'13 0.4
2016-Jul-27 17:28N 51°32' W 127°51'1919.2
2016-Jul-27 16:30N 51°13' W 127°53'1718.4
2016-Jul-27 15:33N 50°57' W 127°43'1716.1
2016-Jul-27 14:32N 50°44' W 127°28'0 0.0
2016-Jul-27 09:17N 50°44' W 127°27'5 1.4
2016-Jul-27 05:33N 50°49' W 127°27'1919.1
2016-Jul-27 04:33N 51°03' W 127°47'2520.6
2016-Jul-27 03:21N 51°27' W 127°51'2 0.1
2016-Jul-25 17:33N 51°30' W 127°51'1919.0
2016-Jul-25 16:33N 51°10' W 127°51'1919.5
2016-Jul-25 15:33N 50°57' W 127°29'14 2.0
2016-Jul-25 08:32N 50°44' W 127°27'0 0.0
2016-Jul-25 07:32N 50°44' W 127°27'0 0.0
2016-Jul-25 06:32N 50°44' W 127°27'7 6.8
2016-Jul-25 05:33N 50°50' W 127°29'1818.4
2016-Jul-25 04:33N 51°04' W 127°48'2019.7
2016-Jul-25 03:31N 51°24' W 127°51'8 0.2
2016-Jul-23 17:28N 51°32' W 127°51'1920.2
2016-Jul-23 16:32N 51°13' W 127°52'2020.5
2016-Jul-23 15:34N 50°55' W 127°39'10 0.9
2016-Jul-23 04:33N 51°04' W 127°48'2619.6
2016-Jul-23 03:15N 51°29' W 127°51'3 0.1
2016-Jul-21 17:18N 51°32' W 127°52'1619.8
2016-Jul-21 16:29N 51°15' W 127°53'1819.9
2016-Jul-21 15:33N 50°58' W 127°45'1816.5
2016-Jul-21 14:27N 50°44' W 127°27'  

Dump ship's entire track history